Time;durP1;ratioP1;P1;durP2;ratioP2;P2;SDS_P1;SDS_P2;PMS_P1;PMS_P2;Temp;Humidity;BMP_temperature;BMP_pressure;BME280_temperature;BME280_humidity;BME280_pressure;Samples;Min_cycle;Max_cycle;Signal;HPM_P1;HPM_P2
2023/09/01 00:01:41;;;;;;;7.30;3.13;;;13.20;99.90;;;;;;5035303;28;20482;-70
2023/09/01 00:04:27;;;;;;;5.50;2.92;;;13.20;99.90;;;;;;5028898;28;20041;-70
2023/09/01 00:07:13;;;;;;;5.05;3.13;;;13.20;99.90;;;;;;5040551;28;20030;-71
2023/09/01 00:09:59;;;;;;;5.70;3.47;;;13.10;99.90;;;;;;5014737;28;20045;-71
2023/09/01 00:12:45;;;;;;;4.40;2.97;;;13.10;99.90;;;;;;5045420;28;20124;-71
2023/09/01 00:15:31;;;;;;;7.35;3.50;;;13.10;99.90;;;;;;5021290;28;20049;-71
2023/09/01 00:18:17;;;;;;;4.53;3.15;;;13.10;99.90;;;;;;5032820;28;20045;-71
2023/09/01 00:21:06;;;;;;;4.55;3.20;;;13.00;99.90;;;;;;5036383;28;20041;-71
2023/09/01 00:23:52;;;;;;;4.82;2.95;;;13.00;99.90;;;;;;5005735;28;20053;-71
2023/09/01 00:26:38;;;;;;;7.30;3.00;;;13.00;99.90;;;;;;5035202;28;20122;-71
2023/09/01 00:29:24;;;;;;;5.53;2.88;;;13.00;99.90;;;;;;5037927;28;20394;-71
2023/09/01 00:32:10;;;;;;;5.55;2.85;;;13.00;99.90;;;;;;5037275;28;20056;-71
2023/09/01 00:34:56;;;;;;;4.70;3.03;;;12.90;99.90;;;;;;5030398;28;20045;-71
2023/09/01 00:37:42;;;;;;;3.42;2.85;;;12.90;99.90;;;;;;5011229;28;20128;-71
2023/09/01 00:40:28;;;;;;;5.72;3.28;;;12.90;99.90;;;;;;5022865;28;20497;-71
2023/09/01 00:43:15;;;;;;;6.05;3.45;;;12.90;99.90;;;;;;5049296;28;20159;-70
2023/09/01 00:46:01;;;;;;;4.95;3.17;;;12.90;99.90;;;;;;5036362;28;20044;-70
2023/09/01 00:48:47;;;;;;;4.22;3.00;;;12.90;99.90;;;;;;5024664;28;20037;-71
2023/09/01 00:51:33;;;;;;;7.40;3.38;;;12.90;99.90;;;;;;5043427;28;20047;-70
2023/09/01 00:54:19;;;;;;;6.70;4.05;;;12.80;99.90;;;;;;5012998;28;20382;-70
2023/09/01 00:57:05;;;;;;;7.57;3.47;;;12.80;99.90;;;;;;5010960;28;20041;-71
2023/09/01 00:59:51;;;;;;;7.05;4.07;;;12.70;99.90;;;;;;5032960;28;20102;-70
2023/09/01 01:02:36;;;;;;;4.90;3.55;;;12.70;99.90;;;;;;5048179;28;20128;-70
2023/09/01 01:05:35;;;;;;;4.47;3.78;;;12.70;99.90;;;;;;5023368;28;20068;-70
2023/09/01 01:08:39;;;;;;;;;;;12.70;99.90;;;;;;5021637;28;20462;-70
2023/09/01 01:11:45;;;;;;;7.45;3.70;;;12.70;99.90;;;;;;5035386;28;20022;-70
2023/09/01 01:15:00;;;;;;;6.25;3.70;;;12.60;99.90;;;;;;5027944;28;20045;-70
2023/09/01 01:17:46;;;;;;;6.68;3.55;;;12.60;99.90;;;;;;5038585;28;20669;-70
2023/09/01 01:20:36;;;;;;;6.72;3.97;;;12.50;99.90;;;;;;5052105;28;20037;-70
2023/09/01 01:23:22;;;;;;;7.78;3.53;;;12.50;99.90;;;;;;5022251;28;20045;-70
2023/09/01 01:26:14;;;;;;;6.45;3.97;;;12.50;99.90;;;;;;5029698;28;20042;-70
2023/09/01 01:28:59;;;;;;;6.50;3.80;;;12.50;99.90;;;;;;5035824;28;20075;-70
2023/09/01 01:31:45;;;;;;;6.53;3.58;;;12.50;99.90;;;;;;5045369;28;20144;-71
2023/09/01 01:34:38;;;;;;;6.70;3.22;;;12.40;99.90;;;;;;5032495;28;20052;-70
2023/09/01 01:37:36;;;;;;;4.78;3.50;;;12.40;99.90;;;;;;5025149;28;20045;-71
2023/09/01 01:40:24;;;;;;;5.28;3.42;;;12.40;99.90;;;;;;5038399;28;20045;-71
2023/09/01 01:43:10;;;;;;;5.47;3.15;;;12.40;99.90;;;;;;5038223;28;20382;-71
2023/09/01 01:45:56;;;;;;;7.20;3.30;;;12.40;99.90;;;;;;5028636;28;20132;-70
2023/09/01 01:48:42;;;;;;;8.25;3.45;;;12.30;99.90;;;;;;5033691;28;20124;-70
2023/09/01 01:51:28;;;;;;;5.68;2.92;;;12.30;99.90;;;;;;5039230;28;20037;-70
2023/09/01 01:54:14;;;;;;;4.88;2.65;;;12.30;99.90;;;;;;5029305;28;20041;-70
2023/09/01 01:57:01;;;;;;;4.47;3.17;;;12.30;99.90;;;;;;5037331;28;20041;-70
2023/09/01 01:59:47;;;;;;;6.38;3.40;;;12.20;99.90;;;;;;5040214;28;20041;-71
2023/09/01 02:02:33;;;;;;;8.23;3.50;;;12.20;99.90;;;;;;5033751;28;20437;-70
2023/09/01 02:05:19;;;;;;;4.65;3.17;;;12.20;99.90;;;;;;5044023;28;20052;-71
2023/09/01 02:08:05;;;;;;;5.22;3.33;;;12.20;99.90;;;;;;5018633;28;20798;-72
2023/09/01 02:10:51;;;;;;;7.25;3.30;;;12.20;99.90;;;;;;5037076;28;20106;-71
2023/09/01 02:13:37;;;;;;;5.50;3.65;;;12.10;99.90;;;;;;5039666;28;20339;-70
2023/09/01 02:16:24;;;;;;;5.43;3.25;;;12.20;99.90;;;;;;5033714;28;20049;-70
2023/09/01 02:19:11;;;;;;;5.63;3.33;;;12.10;99.90;;;;;;5041914;28;20049;-70
2023/09/01 02:21:57;;;;;;;3.95;2.58;;;12.10;99.90;;;;;;5047373;28;20147;-70
2023/09/01 02:24:43;;;;;;;5.97;3.28;;;12.10;99.90;;;;;;5038721;28;20206;-70
2023/09/01 02:27:29;;;;;;;5.05;3.13;;;12.10;99.90;;;;;;5039367;28;20033;-70
2023/09/01 02:30:15;;;;;;;7.32;4.38;;;12.00;99.90;;;;;;5033419;28;20084;-70
2023/09/01 02:33:01;;;;;;;7.30;3.22;;;12.00;99.90;;;;;;5041687;28;20119;-70
2023/09/01 02:35:48;;;;;;;5.10;3.70;;;11.90;99.90;;;;;;5035828;28;20037;-70
2023/09/01 02:38:34;;;;;;;6.40;3.47;;;11.90;99.90;;;;;;5051747;28;20476;-70
2023/09/01 02:41:20;;;;;;;5.30;3.42;;;11.90;99.90;;;;;;5051472;28;20041;-70
2023/09/01 02:44:06;;;;;;;6.22;3.33;;;12.00;99.90;;;;;;5022946;28;20067;-70
2023/09/01 02:46:52;;;;;;;6.05;3.38;;;12.00;99.90;;;;;;5024082;28;20106;-70
2023/09/01 02:49:38;;;;;;;4.82;3.00;;;12.00;99.90;;;;;;5043664;28;20033;-71
2023/09/01 02:52:25;;;;;;;5.60;4.35;;;12.00;99.90;;;;;;5019202;28;20777;-70
2023/09/01 02:55:12;;;;;;;6.20;3.42;;;12.00;99.90;;;;;;5042185;28;20049;-70
2023/09/01 02:57:58;;;;;;;4.95;2.92;;;12.00;99.90;;;;;;5045575;28;20122;-70
2023/09/01 03:00:45;;;;;;;4.63;3.50;;;12.00;99.90;;;;;;5022378;28;20132;-70
2023/09/01 03:03:31;;;;;;;4.88;3.80;;;12.10;99.90;;;;;;5047607;28;20041;-69
2023/09/01 03:06:19;;;;;;;5.32;3.45;;;12.10;99.90;;;;;;5024778;28;20041;-69
2023/09/01 03:09:05;;;;;;;5.37;3.40;;;12.00;99.90;;;;;;5031684;28;20467;-70
2023/09/01 03:11:51;;;;;;;5.93;4.20;;;12.00;99.90;;;;;;5035604;28;20124;-70
2023/09/01 03:14:37;;;;;;;6.30;3.25;;;11.90;99.90;;;;;;5039582;28;20488;-70
2023/09/01 03:17:23;;;;;;;6.35;4.03;;;11.90;99.90;;;;;;5033181;28;20043;-71
2023/09/01 03:20:10;;;;;;;7.45;3.55;;;11.90;99.90;;;;;;5040191;28;20067;-70
2023/09/01 03:22:56;;;;;;;7.68;3.65;;;11.90;99.90;;;;;;5018344;28;20107;-70
2023/09/01 03:25:42;;;;;;;6.72;3.63;;;11.90;99.90;;;;;;5048952;28;20045;-70
2023/09/01 03:28:28;;;;;;;7.43;3.42;;;12.00;99.90;;;;;;5037855;28;20037;-70
2023/09/01 03:31:14;;;;;;;7.25;4.50;;;12.00;99.90;;;;;;5033798;28;20453;-71
2023/09/01 03:34:00;;;;;;;6.03;4.00;;;12.00;99.90;;;;;;5040198;28;20757;-70
2023/09/01 03:36:46;;;;;;;6.53;3.80;;;12.00;99.90;;;;;;5047620;28;20051;-71
2023/09/01 03:39:32;;;;;;;5.82;3.80;;;12.00;99.90;;;;;;5018940;28;20037;-70
2023/09/01 03:42:18;;;;;;;6.30;3.72;;;12.00;99.90;;;;;;5024110;28;20597;-70
2023/09/01 03:45:05;;;;;;;5.40;3.90;;;12.00;99.90;;;;;;5034770;28;20067;-70
2023/09/01 03:47:51;;;;;;;7.00;3.97;;;12.00;99.90;;;;;;5028750;28;20114;-70
2023/09/01 03:50:37;;;;;;;5.47;3.70;;;11.90;99.90;;;;;;5032645;28;20040;-71
2023/09/01 03:53:23;;;;;;;8.15;4.03;;;11.90;99.90;;;;;;5022926;28;20055;-70
2023/09/01 03:56:13;;;;;;;5.72;4.20;;;11.90;99.90;;;;;;5035454;28;20057;-70
2023/09/01 03:59:01;;;;;;;6.25;4.30;;;11.90;99.90;;;;;;5035158;28;20080;-70
2023/09/01 04:01:47;;;;;;;7.70;3.60;;;11.90;99.90;;;;;;5045019;28;20160;-70
2023/09/01 04:04:33;;;;;;;7.45;4.13;;;11.80;99.90;;;;;;5033722;28;20041;-70
2023/09/01 04:07:20;;;;;;;7.32;4.00;;;11.80;99.90;;;;;;5031137;28;20033;-71
2023/09/01 04:10:07;;;;;;;8.82;4.80;;;11.70;99.90;;;;;;5045221;28;20047;-71
2023/09/01 04:12:52;;;;;;;6.68;4.78;;;11.70;99.90;;;;;;5041435;28;20041;-71
2023/09/01 04:15:39;;;;;;;6.20;4.05;;;11.70;99.90;;;;;;5022455;28;20370;-70
2023/09/01 04:18:25;;;;;;;7.55;4.10;;;11.70;99.90;;;;;;5039094;28;20175;-70
2023/09/01 04:21:11;;;;;;;5.10;3.40;;;11.70;99.90;;;;;;5027184;28;20760;-71
2023/09/01 04:23:56;;;;;;;7.32;4.28;;;11.70;99.90;;;;;;5019889;28;20053;-70
2023/09/01 04:26:42;;;;;;;12.32;4.53;;;11.70;99.90;;;;;;5024555;28;20044;-71
2023/09/01 04:29:28;;;;;;;6.00;4.40;;;11.70;99.90;;;;;;5035019;28;20721;-70
2023/09/01 04:32:15;;;;;;;6.38;4.72;;;11.70;99.90;;;;;;5042130;28;20052;-71
2023/09/01 04:35:02;;;;;;;7.32;4.32;;;11.70;99.90;;;;;;5028925;28;20041;-71
2023/09/01 04:37:48;;;;;;;8.52;4.53;;;11.70;99.90;;;;;;5017660;28;20041;-71
2023/09/01 04:40:35;;;;;;;7.63;5.43;;;11.70;99.90;;;;;;5046326;28;20049;-71
2023/09/01 04:43:25;;;;;;;5.60;4.38;;;11.60;99.90;;;;;;5033449;28;20052;-71
2023/09/01 04:46:11;;;;;;;7.55;5.05;;;11.60;99.90;;;;;;5011558;28;20037;-71
2023/09/01 04:48:57;;;;;;;6.63;4.40;;;11.60;99.90;;;;;;5041924;28;20367;-71
2023/09/01 04:51:43;;;;;;;7.10;4.78;;;11.60;99.90;;;;;;5049831;28;20033;-70
2023/09/01 04:54:29;;;;;;;6.63;4.40;;;11.60;99.90;;;;;;5029114;28;20071;-71
2023/09/01 04:57:15;;;;;;;7.03;4.50;;;11.70;99.90;;;;;;5037332;28;20045;-70
2023/09/01 05:00:02;;;;;;;8.18;4.40;;;11.70;99.90;;;;;;5033215;28;20037;-70
2023/09/01 05:02:48;;;;;;;9.03;4.87;;;11.60;99.90;;;;;;5045291;28;20051;-70
2023/09/01 05:05:34;;;;;;;7.18;4.40;;;11.60;99.90;;;;;;5023458;28;20047;-70
2023/09/01 05:08:20;;;;;;;8.80;5.15;;;11.70;99.90;;;;;;5038936;28;20135;-70
2023/09/01 05:11:08;;;;;;;8.23;5.70;;;11.70;99.90;;;;;;5023295;28;20034;-70
2023/09/01 05:13:54;;;;;;;6.47;5.07;;;11.80;99.90;;;;;;5040039;28;20549;-70
2023/09/01 05:16:40;;;;;;;8.13;5.57;;;11.80;99.90;;;;;;5042290;28;20838;-70
2023/09/01 05:19:39;;;;;;;9.35;5.78;;;11.90;99.90;;;;;;5036573;28;20103;-71
2023/09/01 05:22:25;;;;;;;9.25;5.57;;;11.90;99.90;;;;;;5026177;28;20045;-70
2023/09/01 05:25:11;;;;;;;8.90;5.40;;;11.90;99.90;;;;;;5008639;28;20109;-70
2023/09/01 05:27:58;;;;;;;10.52;5.63;;;11.90;99.90;;;;;;5028137;28;20049;-70
2023/09/01 05:30:44;;;;;;;7.53;5.95;;;11.90;99.90;;;;;;5032606;28;20137;-70
2023/09/01 05:33:31;;;;;;;8.35;5.72;;;12.00;99.90;;;;;;5032387;28;20103;-70
2023/09/01 05:36:17;;;;;;;11.52;5.53;;;12.00;99.90;;;;;;5036038;28;20045;-70
2023/09/01 05:39:03;;;;;;;9.35;4.78;;;12.00;99.90;;;;;;5020397;28;20052;-71
2023/09/01 05:41:49;;;;;;;7.88;5.00;;;12.00;99.90;;;;;;5037726;28;20057;-70
2023/09/01 05:44:36;;;;;;;7.00;5.40;;;12.10;99.90;;;;;;5022765;28;20037;-70
2023/09/01 05:47:22;;;;;;;7.97;5.70;;;12.10;99.90;;;;;;5034160;28;20041;-70
2023/09/01 05:50:08;;;;;;;8.27;5.95;;;12.10;99.90;;;;;;5038119;28;20048;-71
2023/09/01 05:52:54;;;;;;;9.15;5.93;;;12.20;99.90;;;;;;5029190;28;20493;-71
2023/09/01 05:55:45;;;;;;;8.63;5.28;;;12.20;99.90;;;;;;5038452;28;20145;-70
2023/09/01 05:58:33;;;;;;;9.43;5.57;;;12.30;99.90;;;;;;5036381;28;20045;-70
2023/09/01 06:01:19;;;;;;;9.57;5.30;;;12.40;99.90;;;;;;5032794;28;20057;-71
2023/09/01 06:04:05;;;;;;;18.52;12.52;;;12.40;99.90;;;;;;5024729;28;20045;-71
2023/09/01 06:06:51;;;;;;;12.70;6.28;;;12.40;99.90;;;;;;5015463;28;20757;-71
2023/09/01 06:09:37;;;;;;;8.50;4.93;;;12.40;99.90;;;;;;5031144;28;20037;-70
2023/09/01 06:12:23;;;;;;;7.57;5.30;;;12.40;99.90;;;;;;5039392;28;20477;-72
2023/09/01 06:15:11;;;;;;;10.68;6.22;;;12.50;99.90;;;;;;5040227;28;20049;-71
2023/09/01 06:17:58;;;;;;;11.30;5.13;;;12.50;99.90;;;;;;5044976;28;20366;-70
2023/09/01 06:20:44;;;;;;;7.85;5.30;;;12.50;99.90;;;;;;5042497;28;20048;-71
2023/09/01 06:23:30;;;;;;;9.40;5.22;;;12.60;99.90;;;;;;5024123;28;20061;-70
2023/09/01 06:26:19;;;;;;;8.68;5.32;;;12.60;99.90;;;;;;5035654;28;20037;-70
2023/09/01 06:29:05;;;;;;;8.30;5.20;;;12.60;99.90;;;;;;5032418;28;20120;-71
2023/09/01 06:31:51;;;;;;;8.35;5.55;;;12.70;99.90;;;;;;5043167;28;20752;-70
2023/09/01 06:34:38;;;;;;;8.77;5.47;;;12.70;99.90;;;;;;5002185;28;20038;-70
2023/09/01 06:37:24;;;;;;;8.07;5.35;;;12.80;99.90;;;;;;5008634;28;20339;-71
2023/09/01 06:40:10;;;;;;;10.38;5.15;;;12.90;99.90;;;;;;5047364;28;20136;-71
2023/09/01 06:42:59;;;;;;;7.55;5.18;;;12.90;99.90;;;;;;5035194;28;20136;-71
2023/09/01 06:45:46;;;;;;;12.55;4.97;;;13.00;99.90;;;;;;5029247;28;20034;-71
2023/09/01 06:48:32;;;;;;;9.75;4.88;;;13.10;99.90;;;;;;5032437;28;20120;-71
2023/09/01 06:51:18;;;;;;;8.68;5.25;;;13.20;99.90;;;;;;5037190;28;20172;-71
2023/09/01 06:54:04;;;;;;;8.45;4.63;;;13.30;99.90;;;;;;5037120;28;20397;-71
2023/09/01 06:56:50;;;;;;;7.53;4.10;;;13.40;99.90;;;;;;5039311;28;20041;-70
2023/09/01 06:59:36;;;;;;;11.07;4.25;;;13.50;99.90;;;;;;5033643;28;20056;-71
2023/09/01 07:02:22;;;;;;;7.75;4.13;;;13.50;99.90;;;;;;5027640;28;20639;-71
2023/09/01 07:05:08;;;;;;;7.78;3.95;;;13.70;99.90;;;;;;5035481;28;20090;-71
2023/09/01 07:07:54;;;;;;;6.72;4.20;;;13.80;99.90;;;;;;5042792;28;20029;-70
2023/09/01 07:10:40;;;;;;;7.25;3.95;;;13.80;99.90;;;;;;5031401;28;20034;-70
2023/09/01 07:13:26;;;;;;;8.88;3.78;;;13.90;99.90;;;;;;5033687;28;20366;-70
2023/09/01 07:16:13;;;;;;;7.10;3.83;;;14.00;99.90;;;;;;5050570;28;20110;-70
2023/09/01 07:18:59;;;;;;;6.60;3.95;;;14.00;99.90;;;;;;5041210;28;20052;-71
2023/09/01 07:21:45;;;;;;;9.13;4.03;;;14.10;99.90;;;;;;5041112;28;20134;-71
2023/09/01 07:24:31;;;;;;;9.18;4.20;;;14.20;99.90;;;;;;5029798;28;20107;-71
2023/09/01 07:27:20;;;;;;;13.20;4.20;;;14.20;99.90;;;;;;5007854;28;20045;-71
2023/09/01 07:30:07;;;;;;;7.28;3.28;;;14.30;99.90;;;;;;5039137;28;20033;-70
2023/09/01 07:32:54;;;;;;;11.23;3.85;;;14.40;99.90;;;;;;5029079;28;20538;-70
2023/09/01 07:35:46;;;;;;;5.93;3.65;;;14.50;99.90;;;;;;5030936;28;20042;-71
2023/09/01 07:38:32;;;;;;;7.13;3.50;;;14.50;99.90;;;;;;5029514;28;20076;-70
2023/09/01 07:41:18;;;;;;;9.45;3.83;;;14.70;99.90;;;;;;5029980;28;20041;-70
2023/09/01 07:44:04;;;;;;;8.10;3.90;;;14.80;99.90;;;;;;5010127;28;20057;-70
2023/09/01 07:46:50;;;;;;;7.72;3.50;;;14.90;99.90;;;;;;5030534;28;20808;-69
2023/09/01 07:49:36;;;;;;;10.70;3.83;;;15.00;99.90;;;;;;5026959;28;20041;-69
2023/09/01 07:52:22;;;;;;;9.05;3.90;;;15.10;99.90;;;;;;5019128;28;20107;-69
2023/09/01 07:55:08;;;;;;;12.13;4.70;;;15.20;99.90;;;;;;5037008;28;20331;-71
2023/09/01 07:57:54;;;;;;;7.50;3.78;;;15.30;99.90;;;;;;5036462;28;20075;-70
2023/09/01 08:00:40;;;;;;;7.38;3.53;;;15.40;99.90;;;;;;5034328;28;20055;-70
2023/09/01 08:03:26;;;;;;;8.57;3.65;;;15.50;99.90;;;;;;5036680;28;20071;-69
2023/09/01 08:06:12;;;;;;;9.43;3.95;;;15.60;99.90;;;;;;5016174;28;20466;-69
2023/09/01 08:08:58;;;;;;;10.30;3.85;;;15.70;99.90;;;;;;5036394;28;20056;-70
2023/09/01 08:11:44;;;;;;;8.73;4.35;;;15.70;99.90;;;;;;5039086;28;20139;-70
2023/09/01 08:14:30;;;;;;;11.55;4.10;;;15.80;99.90;;;;;;5036007;28;20045;-70
2023/09/01 08:17:16;;;;;;;12.23;4.45;;;15.90;99.90;;;;;;5030591;28;20055;-71
2023/09/01 08:20:03;;;;;;;12.65;4.72;;;15.90;99.90;;;;;;5030403;28;20045;-71
2023/09/01 08:22:50;;;;;;;10.57;4.80;;;16.00;99.90;;;;;;5041932;28;20044;-71
2023/09/01 08:25:36;;;;;;;9.45;4.40;;;16.00;99.90;;;;;;5034236;28;20485;-70
2023/09/01 08:28:22;;;;;;;13.05;4.45;;;16.10;99.90;;;;;;5035337;28;20045;-70
2023/09/01 08:31:09;;;;;;;9.32;5.28;;;16.20;99.90;;;;;;5040098;28;20056;-70
2023/09/01 08:33:55;;;;;;;13.63;5.13;;;16.20;99.90;;;;;;5021458;28;20048;-71
2023/09/01 08:36:43;;;;;;;11.52;4.68;;;16.30;99.90;;;;;;5045058;28;20049;-71
2023/09/01 08:39:31;;;;;;;10.13;4.07;;;16.40;99.90;;;;;;5029048;28;20370;-71
2023/09/01 08:42:18;;;;;;;12.93;4.63;;;16.50;99.90;;;;;;5034660;28;20072;-71
2023/09/01 08:45:12;;;;;;;13.02;5.75;;;16.50;99.90;;;;;;5039343;28;20494;-71
2023/09/01 08:48:03;;;;;;;10.07;4.53;;;16.60;99.90;;;;;;5035144;28;20029;-70
2023/09/01 08:50:50;;;;;;;10.48;4.30;;;16.70;99.90;;;;;;5036059;28;20034;-71
2023/09/01 08:53:38;;;;;;;14.50;5.80;;;16.80;99.90;;;;;;5021406;28;20045;-71
2023/09/01 08:56:24;;;;;;;13.13;5.78;;;16.80;99.90;;;;;;5033357;28;20041;-70
2023/09/01 08:59:10;;;;;;;13.18;5.18;;;16.80;99.90;;;;;;5048730;28;20048;-71
2023/09/01 09:01:56;;;;;;;10.00;5.88;;;16.90;99.90;;;;;;5031369;28;20037;-70
2023/09/01 09:04:42;;;;;;;12.07;4.47;;;17.00;99.90;;;;;;5034662;28;20056;-71
2023/09/01 09:07:29;;;;;;;10.80;4.22;;;17.10;99.90;;;;;;5032290;28;20044;-71
2023/09/01 09:10:15;;;;;;;10.38;4.43;;;17.10;99.90;;;;;;5041786;28;20424;-71
2023/09/01 09:13:03;;;;;;;13.45;4.97;;;17.30;99.90;;;;;;5029764;28;20111;-71
2023/09/01 09:16:09;;;;;;;10.95;5.35;;;17.40;99.90;;;;;;5023039;28;20124;-71
2023/09/01 09:18:55;;;;;;;10.27;4.60;;;17.40;99.90;;;;;;5039026;28;20053;-71
2023/09/01 09:21:42;;;;;;;10.70;4.65;;;17.40;99.90;;;;;;5046210;28;20061;-71
2023/09/01 09:24:36;;;;;;;10.25;4.47;;;17.40;99.90;;;;;;5036859;28;20056;-71
2023/09/01 09:27:29;;;;;;;9.80;4.75;;;17.60;99.90;;;;;;5038901;28;20040;-71
2023/09/01 09:30:15;;;;;;;11.63;4.95;;;17.80;99.90;;;;;;5037273;28;20106;-71
2023/09/01 09:33:07;;;;;;;12.93;5.15;;;17.90;99.90;;;;;;5042753;28;20345;-71
2023/09/01 09:35:54;;;;;;;7.47;4.15;;;17.90;99.90;;;;;;5037302;28;20048;-71
2023/09/01 09:38:43;;;;;;;10.60;4.00;;;17.80;99.90;;;;;;5031138;28;20329;-71
2023/09/01 09:41:48;;;;;;;12.00;4.97;;;18.00;99.90;;;;;;5041804;28;20538;-71
2023/09/01 09:44:35;;;;;;;12.32;4.57;;;17.90;99.90;;;;;;5034314;28;20106;-71
2023/09/01 09:47:21;;;;;;;13.82;3.90;;;18.00;99.90;;;;;;5025606;28;20037;-71
2023/09/01 09:50:07;;;;;;;8.18;4.50;;;18.30;99.90;;;;;;5037684;28;20346;-71
2023/09/01 09:53:03;;;;;;;11.90;4.50;;;18.40;99.90;;;;;;5037344;28;20115;-72
2023/09/01 09:55:51;;;;;;;9.82;4.35;;;18.70;99.90;;;;;;5034751;28;20044;-71
2023/09/01 09:58:40;;;;;;;7.80;4.20;;;18.70;99.90;;;;;;5009167;28;20072;-71
2023/09/01 10:01:26;;;;;;;9.95;4.10;;;18.70;99.90;;;;;;5018173;28;20366;-71
2023/09/01 10:04:12;;;;;;;8.98;3.90;;;18.90;99.90;;;;;;5017053;28;20041;-72
2023/09/01 10:06:58;;;;;;;8.35;4.10;;;19.30;99.90;;;;;;5024868;28;20033;-71
2023/09/01 10:09:44;;;;;;;7.97;3.80;;;19.40;99.90;;;;;;5011499;28;20044;-72
2023/09/01 10:12:30;;;;;;;9.63;3.40;;;19.80;99.90;;;;;;5034811;28;20047;-72
2023/09/01 10:15:16;;;;;;;11.90;4.80;;;20.00;99.90;;;;;;5021872;28;20556;-72
2023/09/01 10:18:13;;;;;;;12.98;4.10;;;20.00;99.90;;;;;;5031912;28;20056;-71
2023/09/01 10:21:05;;;;;;;10.73;4.13;;;20.00;99.90;;;;;;5038861;28;20076;-71
2023/09/01 10:23:52;;;;;;;12.20;4.63;;;19.80;99.90;;;;;;5035297;28;20055;-71
2023/09/01 10:26:40;;;;;;;9.53;3.77;;;19.40;99.90;;;;;;5037531;28;20094;-71
2023/09/01 10:29:34;;;;;;;9.98;4.18;;;19.40;99.90;;;;;;5037480;28;20120;-71
2023/09/01 10:32:20;;;;;;;9.65;4.22;;;19.40;99.90;;;;;;5036737;28;20087;-71
2023/09/01 10:35:07;;;;;;;6.82;3.53;;;19.40;99.90;;;;;;5028401;28;20059;-70
2023/09/01 10:38:10;;;;;;;8.20;4.13;;;19.40;99.90;;;;;;5034755;28;20360;-71
2023/09/01 10:40:56;;;;;;;16.48;5.85;;;19.40;99.90;;;;;;5027957;28;20045;-72
2023/09/01 10:43:44;;;;;;;11.45;4.40;;;19.70;99.90;;;;;;5033976;28;20567;-71
2023/09/01 10:46:30;;;;;;;10.15;4.88;;;19.60;99.90;;;;;;5029958;28;20045;-71
2023/09/01 10:49:16;;;;;;;10.82;4.05;;;19.70;99.90;;;;;;5030433;28;20528;-71
2023/09/01 10:52:12;;;;;;;10.65;3.97;;;19.50;99.90;;;;;;5033384;28;20042;-71
2023/09/01 10:55:08;;;;;;;9.45;3.30;;;19.70;99.90;;;;;;5039950;28;20120;-71
2023/09/01 10:57:54;;;;;;;12.60;3.90;;;19.90;99.90;;;;;;5036145;28;20102;-71
2023/09/01 11:00:40;;;;;;;8.85;3.05;;;20.30;99.60;;;;;;5037462;28;20847;-72
2023/09/01 11:03:30;;;;;;;9.07;3.20;;;20.50;98.70;;;;;;5019103;28;20053;-72
2023/09/01 11:06:16;;;;;;;10.13;3.63;;;20.50;98.20;;;;;;5030657;28;20033;-72
2023/09/01 11:09:03;;;;;;;9.95;3.53;;;20.70;98.70;;;;;;5015968;28;20534;-71
2023/09/01 11:11:49;;;;;;;9.60;2.58;;;20.60;97.10;;;;;;5034373;28;20048;-71
2023/09/01 11:14:37;;;;;;;8.23;2.58;;;20.30;97.30;;;;;;5030874;28;20061;-72
2023/09/01 11:17:43;;;;;;;10.50;3.42;;;20.10;96.60;;;;;;5016577;28;20064;-72
2023/09/01 11:20:29;;;;;;;6.43;2.80;;;20.20;96.90;;;;;;5018113;28;20429;-72
2023/09/01 11:23:22;;;;;;;8.13;2.90;;;20.20;97.10;;;;;;5019607;28;20761;-71
2023/09/01 11:26:10;;;;;;;7.13;2.55;;;20.30;97.60;;;;;;5037092;28;20072;-71
2023/09/01 11:28:57;;;;;;;7.10;2.30;;;20.20;97.10;;;;;;5039998;28;20034;-71
2023/09/01 11:31:43;;;;;;;10.27;2.42;;;20.30;97.00;;;;;;5025456;28;20374;-71
2023/09/01 11:34:38;;;;;;;7.78;2.88;;;20.40;97.20;;;;;;5016007;28;20048;-72
2023/09/01 11:37:40;;;;;;;7.65;2.92;;;20.20;97.20;;;;;;5027068;28;20080;-72
2023/09/01 11:40:27;;;;;;;9.55;4.00;;;20.30;97.50;;;;;;5025074;28;20202;-71
2023/09/01 11:43:16;;;;;;;8.30;3.30;;;20.00;97.10;;;;;;5035945;28;20063;-71
2023/09/01 11:46:03;;;;;;;8.70;2.80;;;20.00;97.40;;;;;;5008673;28;20200;-71
2023/09/01 11:48:49;;;;;;;7.77;3.10;;;19.80;98.20;;;;;;5019379;28;20489;-71
2023/09/01 11:51:40;;;;;;;7.97;2.75;;;19.80;97.90;;;;;;5036308;28;20041;-72
2023/09/01 11:54:41;;;;;;;5.88;3.00;;;19.80;97.80;;;;;;5034764;28;20044;-71
2023/09/01 11:57:28;;;;;;;22.80;3.92;;;;;;;;;;5040219;28;20532;-75
2023/09/01 12:00:28;;;;;;;8.93;2.92;;;;;;;;;;5037633;28;20044;-76
2023/09/01 12:03:20;;;;;;;8.77;2.88;;;;;;;;;;5043748;28;20041;-76
2023/09/01 12:06:19;;;;;;;6.32;3.03;;;;;;;;;;5039441;28;20064;-76
2023/09/01 12:09:10;;;;;;;7.68;3.47;;;;;;;;;;5042593;28;20486;-76
2023/09/01 12:11:57;;;;;;;9.27;3.45;;;;;;;;;;5035614;28;20036;-75
2023/09/01 12:14:44;;;;;;;6.60;2.80;;;;;;;;;;5040139;28;20037;-77
2023/09/01 12:17:30;;;;;;;11.50;3.97;;;;;;;;;;5033974;28;20115;-76
2023/09/01 12:20:17;;;;;;;8.75;2.85;;;;;;;;;;5033637;28;20045;-76
2023/09/01 12:23:03;;;;;;;9.18;3.10;;;;;;;;;;5025068;28;20052;-75
2023/09/01 12:25:51;;;;;;;5.90;2.92;;;;;;;;;;5039848;28;20420;-76
2023/09/01 12:28:38;;;;;;;5.97;2.42;;;;;;;;;;5048387;28;20465;-75
2023/09/01 12:31:24;;;;;;;6.60;2.42;;;;;;;;;;5052696;28;20138;-75
2023/09/01 12:34:10;;;;;;;5.20;2.40;;;;;;;;;;5038393;28;20041;-77
2023/09/01 12:36:57;;;;;;;7.75;2.50;;;;;;;;;;5039861;28;20044;-74
2023/09/01 12:39:43;;;;;;;6.90;2.50;;;;;;;;;;5037842;28;20033;-74
2023/09/01 12:42:30;;;;;;;4.82;2.33;;;;;;;;;;5040898;28;20042;-74
2023/09/01 12:45:16;;;;;;;6.15;2.67;;;;;;;;;;5019587;28;20034;-76
2023/09/01 12:48:03;;;;;;;5.78;2.10;;;;;;;;;;5050026;28;20365;-77
2023/09/01 12:50:49;;;;;;;7.83;2.80;;;19.20;99.90;;;;;;5026759;28;20044;-74
2023/09/01 12:53:35;;;;;;;5.55;2.50;;;19.20;99.90;;;;;;5004686;28;20745;-75
2023/09/01 12:56:23;;;;;;;11.85;2.95;;;19.30;99.90;;;;;;5019424;28;20042;-75
2023/09/01 12:59:10;;;;;;;5.82;2.17;;;19.30;99.90;;;;;;5042934;28;20403;-74
2023/09/01 13:01:56;;;;;;;4.95;2.17;;;19.20;99.90;;;;;;5022741;28;20469;-75
2023/09/01 13:04:43;;;;;;;5.80;2.97;;;19.20;99.90;;;;;;5036042;28;20404;-75
2023/09/01 13:07:29;;;;;;;5.60;2.50;;;19.20;99.90;;;;;;5013530;28;20175;-76
2023/09/01 13:10:19;;;;;;;5.22;2.67;;;;;;;;;;5024143;28;20065;-75
2023/09/01 13:13:07;;;;;;;5.88;2.20;;;19.10;99.90;;;;;;5038734;28;20080;-76
2023/09/01 13:15:54;;;;;;;7.13;2.63;;;19.10;99.90;;;;;;5030089;28;20042;-75
2023/09/01 13:18:40;;;;;;;4.68;2.15;;;19.10;99.90;;;;;;5035290;28;20153;-77
2023/09/01 13:21:26;;;;;;;7.15;2.40;;;19.10;99.90;;;;;;5017600;28;20041;-76
2023/09/01 13:24:12;;;;;;;8.35;2.80;;;19.10;99.90;;;;;;5046357;28;20754;-76
2023/09/01 13:26:59;;;;;;;5.95;2.97;;;19.10;99.90;;;;;;5027580;28;20473;-75
2023/09/01 13:29:46;;;;;;;9.17;2.40;;;19.20;99.90;;;;;;5028315;28;20110;-75
2023/09/01 13:32:32;;;;;;;7.50;2.40;;;19.20;99.90;;;;;;5027985;28;20318;-78
2023/09/01 13:35:18;;;;;;;6.45;2.63;;;19.20;99.90;;;;;;5043902;28;20071;-77
2023/09/01 13:38:04;;;;;;;7.13;2.45;;;19.30;99.90;;;;;;5033261;28;20116;-76
2023/09/01 13:40:54;;;;;;;7.85;2.60;;;19.30;99.90;;;;;;5034567;28;20029;-77
2023/09/01 13:43:40;;;;;;;5.45;2.33;;;19.40;99.90;;;;;;5033217;28;20142;-76
2023/09/01 13:46:27;;;;;;;5.43;2.67;;;19.40;99.90;;;;;;5021976;28;20041;-76
2023/09/01 13:49:15;;;;;;;5.07;2.35;;;19.40;99.90;;;;;;5038488;28;20065;-76
2023/09/01 13:52:02;;;;;;;5.25;1.92;;;19.40;99.90;;;;;;5034426;28;20044;-76
2023/09/01 13:54:53;;;;;;;6.05;2.45;;;19.50;99.90;;;;;;5034925;28;20053;-77
2023/09/01 13:57:40;;;;;;;10.13;2.72;;;19.50;99.90;;;;;;5035396;28;20037;-75
2023/09/01 14:00:26;;;;;;;5.53;2.40;;;19.60;99.90;;;;;;5040503;28;21314;-76
2023/09/01 14:03:13;;;;;;;6.47;2.33;;;19.60;99.90;;;;;;5029406;28;20124;-75
2023/09/01 14:06:00;;;;;;;6.00;2.20;;;19.60;99.90;;;;;;5048537;28;20072;-76
2023/09/01 14:08:46;;;;;;;5.07;2.03;;;19.60;99.90;;;;;;5035219;28;20272;-76
2023/09/01 14:11:32;;;;;;;5.65;2.08;;;19.60;99.90;;;;;;5023751;28;20128;-75
2023/09/01 14:14:18;;;;;;;5.45;2.03;;;19.60;99.90;;;;;;5027180;28;20033;-75
2023/09/01 14:17:04;;;;;;;7.00;2.30;;;19.60;99.90;;;;;;5020025;28;20133;-78
2023/09/01 14:19:50;;;;;;;4.78;1.92;;;19.60;99.90;;;;;;5035587;28;20063;-77
2023/09/01 14:22:36;;;;;;;5.05;2.35;;;19.60;99.90;;;;;;5021439;28;20043;-77
2023/09/01 14:25:22;;;;;;;4.32;2.20;;;19.60;99.90;;;;;;5034732;28;20091;-75
2023/09/01 14:28:08;;;;;;;5.50;2.00;;;19.50;99.90;;;;;;5021298;28;20079;-75
2023/09/01 14:30:54;;;;;;;3.75;2.05;;;19.50;99.90;;;;;;5034981;28;20732;-76
2023/09/01 14:33:42;;;;;;;6.78;2.38;;;19.50;99.90;;;;;;5035657;28;20045;-77
2023/09/01 14:36:28;;;;;;;;;;;19.40;99.90;;;;;;5020270;28;20474;-78
2023/09/01 14:39:15;;;;;;;5.97;2.25;;;19.40;99.90;;;;;;5024567;28;20264;-76